sensor_id;sensor_type;location;lat;lon;timestamp;noise_LAeq;noise_LA_min;noise_LA_max;noise_LA01;noise_LA95
70077;Laerm;57448;51.490;5.436;2024-01-10T00:01:55;36.39;34.04;41.44;;
70077;Laerm;57448;51.490;5.436;2024-01-10T00:04:20;37.06;34.12;42.29;;
70077;Laerm;57448;51.490;5.436;2024-01-10T00:06:45;36.46;33.92;40.70;;
70077;Laerm;57448;51.490;5.436;2024-01-10T00:09:11;36.81;34.15;40.89;;
70077;Laerm;57448;51.490;5.436;2024-01-10T00:11:36;37.18;33.69;41.45;;
70077;Laerm;57448;51.490;5.436;2024-01-10T00:14:02;36.71;34.30;42.67;;
70077;Laerm;57448;51.490;5.436;2024-01-10T00:16:28;35.71;33.17;39.10;;
70077;Laerm;57448;51.490;5.436;2024-01-10T00:18:54;37.00;34.16;48.58;;
70077;Laerm;57448;51.490;5.436;2024-01-10T00:21:19;35.91;33.49;43.63;;
70077;Laerm;57448;51.490;5.436;2024-01-10T00:23:44;36.08;33.64;40.03;;
70077;Laerm;57448;51.490;5.436;2024-01-10T00:26:10;36.76;33.99;42.15;;
70077;Laerm;57448;51.490;5.436;2024-01-10T00:28:35;37.11;33.89;42.40;;
70077;Laerm;57448;51.490;5.436;2024-01-10T00:31:00;36.66;33.62;42.31;;
70077;Laerm;57448;51.490;5.436;2024-01-10T00:33:26;36.76;34.30;41.57;;
70077;Laerm;57448;51.490;5.436;2024-01-10T00:35:51;36.15;33.63;40.47;;
70077;Laerm;57448;51.490;5.436;2024-01-10T00:38:16;36.07;33.44;40.46;;
70077;Laerm;57448;51.490;5.436;2024-01-10T00:40:42;36.48;33.84;42.95;;
70077;Laerm;57448;51.490;5.436;2024-01-10T00:43:07;37.22;33.74;41.19;;
70077;Laerm;57448;51.490;5.436;2024-01-10T00:45:32;35.73;33.73;42.26;;
70077;Laerm;57448;51.490;5.436;2024-01-10T00:47:58;36.37;33.68;41.81;;
70077;Laerm;57448;51.490;5.436;2024-01-10T00:50:24;35.53;32.96;43.39;;
70077;Laerm;57448;51.490;5.436;2024-01-10T00:52:49;35.66;33.24;39.48;;
70077;Laerm;57448;51.490;5.436;2024-01-10T00:55:14;36.46;33.20;41.36;;
70077;Laerm;57448;51.490;5.436;2024-01-10T00:57:40;36.26;33.44;42.10;;
70077;Laerm;57448;51.490;5.436;2024-01-10T01:00:06;36.63;33.61;42.48;;
70077;Laerm;57448;51.490;5.436;2024-01-10T01:02:31;36.02;33.11;42.49;;
70077;Laerm;57448;51.490;5.436;2024-01-10T01:04:57;36.42;33.84;40.14;;
70077;Laerm;57448;51.490;5.436;2024-01-10T01:07:22;37.41;33.72;42.01;;
70077;Laerm;57448;51.490;5.436;2024-01-10T01:09:47;36.93;33.68;40.74;;
70077;Laerm;57448;51.490;5.436;2024-01-10T01:12:13;36.36;33.44;41.51;;
70077;Laerm;57448;51.490;5.436;2024-01-10T01:14:38;36.74;33.24;43.03;;
70077;Laerm;57448;51.490;5.436;2024-01-10T01:17:03;36.85;33.86;41.85;;
70077;Laerm;57448;51.490;5.436;2024-01-10T01:19:29;36.34;34.09;40.18;;
70077;Laerm;57448;51.490;5.436;2024-01-10T01:21:54;35.23;32.98;39.45;;
70077;Laerm;57448;51.490;5.436;2024-01-10T01:24:19;35.92;33.46;40.80;;
70077;Laerm;57448;51.490;5.436;2024-01-10T01:26:45;37.15;33.88;41.22;;
70077;Laerm;57448;51.490;5.436;2024-01-10T01:29:10;37.36;34.24;41.42;;
70077;Laerm;57448;51.490;5.436;2024-01-10T01:31:35;37.38;34.05;41.12;;
70077;Laerm;57448;51.490;5.436;2024-01-10T01:34:02;36.76;33.72;41.11;;
70077;Laerm;57448;51.490;5.436;2024-01-10T01:36:27;36.58;33.74;41.34;;
70077;Laerm;57448;51.490;5.436;2024-01-10T01:38:53;36.24;33.34;42.74;;
70077;Laerm;57448;51.490;5.436;2024-01-10T01:41:18;36.43;33.65;42.48;;
70077;Laerm;57448;51.490;5.436;2024-01-10T01:43:44;35.77;33.31;39.86;;
70077;Laerm;57448;51.490;5.436;2024-01-10T01:46:09;35.50;33.40;38.36;;
70077;Laerm;57448;51.490;5.436;2024-01-10T01:48:35;37.73;34.82;43.64;;
70077;Laerm;57448;51.490;5.436;2024-01-10T01:51:02;37.49;34.31;40.46;;
70077;Laerm;57448;51.490;5.436;2024-01-10T01:53:27;37.25;34.36;41.18;;
70077;Laerm;57448;51.490;5.436;2024-01-10T01:55:56;36.36;33.18;41.64;;
70077;Laerm;57448;51.490;5.436;2024-01-10T01:58:22;37.39;34.49;43.19;;
70077;Laerm;57448;51.490;5.436;2024-01-10T02:00:48;37.43;33.52;41.46;;
70077;Laerm;57448;51.490;5.436;2024-01-10T02:03:13;35.91;33.51;45.46;;
70077;Laerm;57448;51.490;5.436;2024-01-10T02:05:38;36.02;32.52;41.17;;
70077;Laerm;57448;51.490;5.436;2024-01-10T02:08:04;37.84;34.08;46.18;;
70077;Laerm;57448;51.490;5.436;2024-01-10T02:10:29;36.20;33.65;41.45;;
70077;Laerm;57448;51.490;5.436;2024-01-10T02:12:55;35.76;33.18;41.39;;
70077;Laerm;57448;51.490;5.436;2024-01-10T02:15:20;35.21;33.17;38.37;;
70077;Laerm;57448;51.490;5.436;2024-01-10T02:17:46;36.62;33.17;41.30;;
70077;Laerm;57448;51.490;5.436;2024-01-10T02:20:12;36.05;33.23;43.39;;
70077;Laerm;57448;51.490;5.436;2024-01-10T02:22:38;36.07;32.81;40.82;;
70077;Laerm;57448;51.490;5.436;2024-01-10T02:25:04;37.94;34.93;43.24;;
70077;Laerm;57448;51.490;5.436;2024-01-10T02:27:30;37.12;34.51;41.47;;
70077;Laerm;57448;51.490;5.436;2024-01-10T02:29:55;36.27;33.72;40.80;;
70077;Laerm;57448;51.490;5.436;2024-01-10T02:32:21;38.34;34.86;43.86;;
70077;Laerm;57448;51.490;5.436;2024-01-10T02:34:48;36.98;34.26;45.43;;
70077;Laerm;57448;51.490;5.436;2024-01-10T02:37:13;38.21;35.12;46.04;;
70077;Laerm;57448;51.490;5.436;2024-01-10T02:39:39;37.09;33.52;42.82;;
70077;Laerm;57448;51.490;5.436;2024-01-10T02:42:04;35.52;33.88;38.02;;
70077;Laerm;57448;51.490;5.436;2024-01-10T02:44:30;36.43;33.53;42.36;;
70077;Laerm;57448;51.490;5.436;2024-01-10T02:46:55;37.09;33.44;42.07;;
70077;Laerm;57448;51.490;5.436;2024-01-10T02:49:20;39.62;35.25;45.95;;
70077;Laerm;57448;51.490;5.436;2024-01-10T02:51:46;38.54;34.56;47.30;;
70077;Laerm;57448;51.490;5.436;2024-01-10T02:54:11;37.73;34.30;44.75;;
70077;Laerm;57448;51.490;5.436;2024-01-10T02:56:36;37.34;34.70;48.08;;
70077;Laerm;57448;51.490;5.436;2024-01-10T02:59:02;36.53;33.63;41.49;;
70077;Laerm;57448;51.490;5.436;2024-01-10T03:01:27;36.37;34.51;39.54;;
70077;Laerm;57448;51.490;5.436;2024-01-10T03:03:53;38.00;34.73;42.78;;
70077;Laerm;57448;51.490;5.436;2024-01-10T03:06:18;37.96;35.34;41.60;;
70077;Laerm;57448;51.490;5.436;2024-01-10T03:08:43;37.65;34.80;41.88;;
70077;Laerm;57448;51.490;5.436;2024-01-10T03:11:09;37.61;35.17;44.90;;
70077;Laerm;57448;51.490;5.436;2024-01-10T03:13:34;36.51;34.20;39.01;;
70077;Laerm;57448;51.490;5.436;2024-01-10T03:15:59;37.28;34.68;41.17;;
70077;Laerm;57448;51.490;5.436;2024-01-10T03:18:25;38.08;35.00;43.64;;
70077;Laerm;57448;51.490;5.436;2024-01-10T03:20:50;38.34;35.67;42.13;;
70077;Laerm;57448;51.490;5.436;2024-01-10T03:23:15;36.92;34.34;41.44;;
70077;Laerm;57448;51.490;5.436;2024-01-10T03:25:41;38.05;35.25;42.22;;
70077;Laerm;57448;51.490;5.436;2024-01-10T03:28:06;38.78;35.31;44.03;;
70077;Laerm;57448;51.490;5.436;2024-01-10T03:30:31;38.36;35.51;46.95;;
70077;Laerm;57448;51.490;5.436;2024-01-10T03:32:57;37.96;35.36;42.69;;
70077;Laerm;57448;51.490;5.436;2024-01-10T03:35:22;39.16;36.82;42.97;;
70077;Laerm;57448;51.490;5.436;2024-01-10T03:37:47;39.68;36.67;43.38;;
70077;Laerm;57448;51.490;5.436;2024-01-10T03:40:13;39.32;36.39;43.48;;
70077;Laerm;57448;51.490;5.436;2024-01-10T03:42:38;40.37;36.97;48.90;;
70077;Laerm;57448;51.490;5.436;2024-01-10T03:45:04;38.59;35.80;44.19;;
70077;Laerm;57448;51.490;5.436;2024-01-10T03:47:29;38.99;36.10;41.64;;
70077;Laerm;57448;51.490;5.436;2024-01-10T03:49:55;38.69;36.31;42.39;;
70077;Laerm;57448;51.490;5.436;2024-01-10T03:52:20;39.24;35.99;43.23;;
70077;Laerm;57448;51.490;5.436;2024-01-10T03:54:45;39.34;36.67;43.88;;
70077;Laerm;57448;51.490;5.436;2024-01-10T03:57:11;39.44;34.59;43.64;;
70077;Laerm;57448;51.490;5.436;2024-01-10T03:59:36;39.99;36.92;43.75;;
70077;Laerm;57448;51.490;5.436;2024-01-10T04:02:02;40.88;37.80;46.45;;
70077;Laerm;57448;51.490;5.436;2024-01-10T04:04:27;39.19;36.35;43.24;;
70077;Laerm;57448;51.490;5.436;2024-01-10T04:06:52;38.29;36.31;40.91;;
70077;Laerm;57448;51.490;5.436;2024-01-10T04:09:18;38.84;35.65;42.74;;
70077;Laerm;57448;51.490;5.436;2024-01-10T04:11:43;40.25;37.66;43.81;;
70077;Laerm;57448;51.490;5.436;2024-01-10T04:14:08;39.63;37.08;43.48;;
70077;Laerm;57448;51.490;5.436;2024-01-10T04:16:34;40.08;37.70;43.56;;
70077;Laerm;57448;51.490;5.436;2024-01-10T04:18:59;39.95;37.23;43.71;;
70077;Laerm;57448;51.490;5.436;2024-01-10T04:21:24;40.35;38.14;44.08;;
70077;Laerm;57448;51.490;5.436;2024-01-10T04:23:50;41.12;38.33;44.16;;
70077;Laerm;57448;51.490;5.436;2024-01-10T04:26:17;41.29;39.01;44.60;;
70077;Laerm;57448;51.490;5.436;2024-01-10T04:28:42;40.85;38.18;45.69;;
70077;Laerm;57448;51.490;5.436;2024-01-10T04:31:07;40.83;38.73;44.10;;
70077;Laerm;57448;51.490;5.436;2024-01-10T04:33:33;40.84;37.85;44.36;;
70077;Laerm;57448;51.490;5.436;2024-01-10T04:35:58;41.43;39.21;43.68;;
70077;Laerm;57448;51.490;5.436;2024-01-10T04:38:23;42.02;39.69;45.63;;
70077;Laerm;57448;51.490;5.436;2024-01-10T04:40:51;42.30;40.14;44.84;;
70077;Laerm;57448;51.490;5.436;2024-01-10T04:43:16;42.34;39.79;45.96;;
70077;Laerm;57448;51.490;5.436;2024-01-10T04:45:42;42.72;40.61;46.61;;
70077;Laerm;57448;51.490;5.436;2024-01-10T04:48:07;43.19;40.38;45.96;;
70077;Laerm;57448;51.490;5.436;2024-01-10T04:50:33;42.09;39.91;47.79;;
70077;Laerm;57448;51.490;5.436;2024-01-10T04:52:59;41.68;39.21;44.70;;
70077;Laerm;57448;51.490;5.436;2024-01-10T04:55:24;42.59;40.35;44.98;;
70077;Laerm;57448;51.490;5.436;2024-01-10T04:57:50;43.20;39.80;47.92;;
70077;Laerm;57448;51.490;5.436;2024-01-10T05:00:15;43.19;40.80;46.52;;
70077;Laerm;57448;51.490;5.436;2024-01-10T05:02:40;43.28;40.87;46.98;;
70077;Laerm;57448;51.490;5.436;2024-01-10T05:05:06;43.81;41.10;47.69;;
70077;Laerm;57448;51.490;5.436;2024-01-10T05:07:31;43.82;41.55;46.97;;
70077;Laerm;57448;51.490;5.436;2024-01-10T05:09:57;44.30;41.76;47.47;;
70077;Laerm;57448;51.490;5.436;2024-01-10T05:12:22;44.17;41.85;49.13;;
70077;Laerm;57448;51.490;5.436;2024-01-10T05:14:47;43.52;40.69;49.00;;
70077;Laerm;57448;51.490;5.436;2024-01-10T05:17:13;44.49;41.06;48.03;;
70077;Laerm;57448;51.490;5.436;2024-01-10T05:19:39;44.97;42.76;48.50;;
70077;Laerm;57448;51.490;5.436;2024-01-10T05:22:04;44.27;41.94;46.42;;
70077;Laerm;57448;51.490;5.436;2024-01-10T05:24:30;44.26;42.35;46.93;;
70077;Laerm;57448;51.490;5.436;2024-01-10T05:26:55;44.47;42.23;51.36;;
70077;Laerm;57448;51.490;5.436;2024-01-10T05:29:20;43.56;41.62;45.48;;
70077;Laerm;57448;51.490;5.436;2024-01-10T05:31:48;43.82;41.95;48.06;;
70077;Laerm;57448;51.490;5.436;2024-01-10T05:34:14;44.39;42.49;46.54;;
70077;Laerm;57448;51.490;5.436;2024-01-10T05:36:39;44.75;42.75;47.52;;
70077;Laerm;57448;51.490;5.436;2024-01-10T05:39:04;44.94;42.84;50.80;;
70077;Laerm;57448;51.490;5.436;2024-01-10T05:41:30;45.83;43.04;50.57;;
70077;Laerm;57448;51.490;5.436;2024-01-10T05:43:55;46.42;44.16;52.60;;
70077;Laerm;57448;51.490;5.436;2024-01-10T05:46:20;45.20;43.09;48.23;;
70077;Laerm;57448;51.490;5.436;2024-01-10T05:48:46;45.48;43.23;51.48;;
70077;Laerm;57448;51.490;5.436;2024-01-10T05:51:11;44.67;42.63;46.73;;
70077;Laerm;57448;51.490;5.436;2024-01-10T05:53:37;44.57;42.70;47.34;;
70077;Laerm;57448;51.490;5.436;2024-01-10T05:56:02;44.84;42.56;47.84;;
70077;Laerm;57448;51.490;5.436;2024-01-10T05:58:28;45.28;43.30;48.88;;
70077;Laerm;57448;51.490;5.436;2024-01-10T06:00:53;45.62;43.23;50.89;;
70077;Laerm;57448;51.490;5.436;2024-01-10T06:03:20;45.77;42.80;48.62;;
70077;Laerm;57448;51.490;5.436;2024-01-10T06:05:45;44.99;43.04;46.81;;
70077;Laerm;57448;51.490;5.436;2024-01-10T06:08:10;45.00;42.56;49.13;;
70077;Laerm;57448;51.490;5.436;2024-01-10T06:10:36;44.88;43.22;46.62;;
70077;Laerm;57448;51.490;5.436;2024-01-10T06:13:01;45.65;43.68;48.83;;
70077;Laerm;57448;51.490;5.436;2024-01-10T06:15:26;44.90;43.10;46.88;;
70077;Laerm;57448;51.490;5.436;2024-01-10T06:17:52;45.56;43.02;50.13;;
70077;Laerm;57448;51.490;5.436;2024-01-10T06:20:17;58.75;43.84;71.80;;
70077;Laerm;57448;51.490;5.436;2024-01-10T06:22:43;48.01;43.59;60.24;;
70077;Laerm;57448;51.490;5.436;2024-01-10T06:25:08;45.15;43.05;52.41;;
70077;Laerm;57448;51.490;5.436;2024-01-10T06:27:34;44.95;43.09;46.90;;
70077;Laerm;57448;51.490;5.436;2024-01-10T06:30:00;44.84;43.38;49.27;;
70077;Laerm;57448;51.490;5.436;2024-01-10T06:32:26;45.05;43.16;50.00;;
70077;Laerm;57448;51.490;5.436;2024-01-10T06:34:51;44.47;42.43;46.60;;
70077;Laerm;57448;51.490;5.436;2024-01-10T06:37:18;45.00;42.32;54.82;;
70077;Laerm;57448;51.490;5.436;2024-01-10T06:39:43;43.86;42.22;49.28;;
70077;Laerm;57448;51.490;5.436;2024-01-10T06:42:09;44.97;43.06;48.03;;
70077;Laerm;57448;51.490;5.436;2024-01-10T06:44:36;43.85;41.95;47.68;;
70077;Laerm;57448;51.490;5.436;2024-01-10T06:47:02;44.47;42.37;49.21;;
70077;Laerm;57448;51.490;5.436;2024-01-10T06:49:28;44.20;42.71;51.41;;
70077;Laerm;57448;51.490;5.436;2024-01-10T06:51:54;57.51;42.92;69.74;;
70077;Laerm;57448;51.490;5.436;2024-01-10T06:54:19;60.06;43.24;73.21;;
70077;Laerm;57448;51.490;5.436;2024-01-10T06:56:44;45.50;43.03;54.82;;
70077;Laerm;57448;51.490;5.436;2024-01-10T06:59:10;43.99;42.68;47.13;;
70077;Laerm;57448;51.490;5.436;2024-01-10T07:01:36;44.61;42.64;49.88;;
70077;Laerm;57448;51.490;5.436;2024-01-10T07:04:01;53.53;43.31;64.88;;
70077;Laerm;57448;51.490;5.436;2024-01-10T07:06:27;46.76;43.38;66.66;;
70077;Laerm;57448;51.490;5.436;2024-01-10T07:08:52;44.98;42.77;57.10;;
70077;Laerm;57448;51.490;5.436;2024-01-10T07:11:18;44.91;43.29;55.06;;
70077;Laerm;57448;51.490;5.436;2024-01-10T07:13:44;45.53;42.87;52.67;;
70077;Laerm;57448;51.490;5.436;2024-01-10T07:16:10;45.66;43.77;53.07;;
70077;Laerm;57448;51.490;5.436;2024-01-10T07:18:35;47.78;43.05;61.45;;
70077;Laerm;57448;51.490;5.436;2024-01-10T07:21:01;47.15;43.12;59.15;;
70077;Laerm;57448;51.490;5.436;2024-01-10T07:23:26;45.96;44.23;49.74;;
70077;Laerm;57448;51.490;5.436;2024-01-10T07:25:51;46.77;43.80;63.03;;
70077;Laerm;57448;51.490;5.436;2024-01-10T07:28:17;47.65;44.96;61.76;;
70077;Laerm;57448;51.490;5.436;2024-01-10T07:30:43;47.28;44.78;59.08;;
70077;Laerm;57448;51.490;5.436;2024-01-10T07:33:09;49.02;45.45;64.47;;
70077;Laerm;57448;51.490;5.436;2024-01-10T07:35:34;47.90;44.33;58.66;;
70077;Laerm;57448;51.490;5.436;2024-01-10T07:38:00;46.55;44.11;57.68;;
70077;Laerm;57448;51.490;5.436;2024-01-10T07:40:25;46.23;43.92;52.53;;
70077;Laerm;57448;51.490;5.436;2024-01-10T07:42:50;45.95;43.37;49.53;;
70077;Laerm;57448;51.490;5.436;2024-01-10T07:45:16;51.58;44.24;66.65;;
70077;Laerm;57448;51.490;5.436;2024-01-10T07:47:41;52.65;44.88;66.32;;
70077;Laerm;57448;51.490;5.436;2024-01-10T07:50:07;47.33;44.93;57.04;;
70077;Laerm;57448;51.490;5.436;2024-01-10T07:52:33;47.24;45.30;52.88;;
70077;Laerm;57448;51.490;5.436;2024-01-10T07:54:59;46.41;44.05;52.51;;
70077;Laerm;57448;51.490;5.436;2024-01-10T07:57:24;46.03;43.80;52.25;;
70077;Laerm;57448;51.490;5.436;2024-01-10T07:59:50;46.41;44.22;58.78;;
70077;Laerm;57448;51.490;5.436;2024-01-10T08:02:15;46.95;44.52;56.28;;
70077;Laerm;57448;51.490;5.436;2024-01-10T08:04:41;57.68;43.90;70.75;;
70077;Laerm;57448;51.490;5.436;2024-01-10T08:07:07;55.20;44.24;67.45;;
70077;Laerm;57448;51.490;5.436;2024-01-10T08:09:33;47.65;44.27;62.10;;
70077;Laerm;57448;51.490;5.436;2024-01-10T08:11:58;45.42;42.68;52.85;;
70077;Laerm;57448;51.490;5.436;2024-01-10T08:14:23;45.98;43.41;58.69;;
70077;Laerm;57448;51.490;5.436;2024-01-10T08:16:49;44.50;41.84;50.29;;
70077;Laerm;57448;51.490;5.436;2024-01-10T08:19:14;44.28;41.75;46.33;;
70077;Laerm;57448;51.490;5.436;2024-01-10T08:21:40;44.94;42.09;57.18;;
70077;Laerm;57448;51.490;5.436;2024-01-10T08:24:05;44.46;42.11;58.07;;
70077;Laerm;57448;51.490;5.436;2024-01-10T08:26:31;51.59;42.66;66.28;;
70077;Laerm;57448;51.490;5.436;2024-01-10T08:28:56;46.65;42.36;60.77;;
70077;Laerm;57448;51.490;5.436;2024-01-10T08:31:22;44.52;41.63;50.70;;
70077;Laerm;57448;51.490;5.436;2024-01-10T08:33:48;44.99;41.58;56.17;;
70077;Laerm;57448;51.490;5.436;2024-01-10T08:36:14;52.19;41.72;72.60;;
70077;Laerm;57448;51.490;5.436;2024-01-10T08:38:42;45.85;42.26;57.99;;
70077;Laerm;57448;51.490;5.436;2024-01-10T08:41:07;45.13;42.58;60.10;;
70077;Laerm;57448;51.490;5.436;2024-01-10T08:43:33;45.12;42.23;59.03;;
70077;Laerm;57448;51.490;5.436;2024-01-10T08:45:59;44.79;42.13;56.65;;
70077;Laerm;57448;51.490;5.436;2024-01-10T08:48:24;45.53;41.98;57.49;;
70077;Laerm;57448;51.490;5.436;2024-01-10T08:50:50;44.28;41.51;54.92;;
70077;Laerm;57448;51.490;5.436;2024-01-10T08:53:15;43.46;41.13;57.87;;
70077;Laerm;57448;51.490;5.436;2024-01-10T08:55:41;53.76;41.12;68.33;;
70077;Laerm;57448;51.490;5.436;2024-01-10T08:58:06;44.26;41.10;56.69;;
70077;Laerm;57448;51.490;5.436;2024-01-10T09:00:32;44.57;41.33;56.80;;
70077;Laerm;57448;51.490;5.436;2024-01-10T09:02:57;43.28;40.46;50.54;;
70077;Laerm;57448;51.490;5.436;2024-01-10T09:05:23;44.46;41.19;56.75;;
70077;Laerm;57448;51.490;5.436;2024-01-10T09:07:48;42.73;40.40;59.56;;
70077;Laerm;57448;51.490;5.436;2024-01-10T09:10:14;44.07;40.34;55.63;;
70077;Laerm;57448;51.490;5.436;2024-01-10T09:12:39;42.82;39.45;59.93;;
70077;Laerm;57448;51.490;5.436;2024-01-10T09:15:08;58.44;40.06;73.26;;
70077;Laerm;57448;51.490;5.436;2024-01-10T09:17:38;46.35;41.10;63.91;;
70077;Laerm;57448;51.490;5.436;2024-01-10T09:20:03;43.67;40.62;54.91;;
70077;Laerm;57448;51.490;5.436;2024-01-10T09:22:28;43.91;40.46;55.95;;
70077;Laerm;57448;51.490;5.436;2024-01-10T09:24:54;43.36;40.08;56.29;;
70077;Laerm;57448;51.490;5.436;2024-01-10T09:27:19;42.72;39.78;55.03;;
70077;Laerm;57448;51.490;5.436;2024-01-10T09:29:45;42.63;39.75;56.74;;
70077;Laerm;57448;51.490;5.436;2024-01-10T09:32:10;41.87;39.50;49.06;;
70077;Laerm;57448;51.490;5.436;2024-01-10T09:34:35;42.29;39.77;53.04;;
70077;Laerm;57448;51.490;5.436;2024-01-10T09:37:01;42.01;39.92;48.48;;
70077;Laerm;57448;51.490;5.436;2024-01-10T09:39:27;42.84;40.00;53.48;;
70077;Laerm;57448;51.490;5.436;2024-01-10T09:41:52;45.09;39.94;63.38;;
70077;Laerm;57448;51.490;5.436;2024-01-10T09:44:18;41.98;39.17;53.73;;
70077;Laerm;57448;51.490;5.436;2024-01-10T09:46:45;41.99;38.86;46.11;;
70077;Laerm;57448;51.490;5.436;2024-01-10T09:49:11;45.14;39.24;69.80;;
70077;Laerm;57448;51.490;5.436;2024-01-10T09:51:36;57.73;41.02;71.87;;
70077;Laerm;57448;51.490;5.436;2024-01-10T09:54:02;42.75;39.37;53.11;;
70077;Laerm;57448;51.490;5.436;2024-01-10T09:56:29;40.38;38.07;43.04;;
70077;Laerm;57448;51.490;5.436;2024-01-10T09:58:55;43.46;38.49;62.42;;
70077;Laerm;57448;51.490;5.436;2024-01-10T10:01:20;57.47;39.43;71.25;;
70077;Laerm;57448;51.490;5.436;2024-01-10T10:03:46;46.45;40.39;58.62;;
70077;Laerm;57448;51.490;5.436;2024-01-10T10:06:14;42.80;38.23;52.36;;
70077;Laerm;57448;51.490;5.436;2024-01-10T10:08:39;40.43;37.93;48.71;;
70077;Laerm;57448;51.490;5.436;2024-01-10T10:11:06;58.97;38.75;72.87;;
70077;Laerm;57448;51.490;5.436;2024-01-10T10:13:32;40.67;37.84;44.14;;
70077;Laerm;57448;51.490;5.436;2024-01-10T10:16:02;42.08;38.46;55.61;;
70077;Laerm;57448;51.490;5.436;2024-01-10T10:18:28;42.81;38.52;63.28;;
70077;Laerm;57448;51.490;5.436;2024-01-10T10:21:27;40.40;37.59;50.19;;
70077;Laerm;57448;51.490;5.436;2024-01-10T10:23:58;42.23;38.80;54.02;;
70077;Laerm;57448;51.490;5.436;2024-01-10T10:26:24;56.51;38.56;70.47;;
70077;Laerm;57448;51.490;5.436;2024-01-10T10:28:51;42.90;38.53;57.93;;
70077;Laerm;57448;51.490;5.436;2024-01-10T10:31:17;41.81;38.70;60.40;;
70077;Laerm;57448;51.490;5.436;2024-01-10T10:33:44;40.86;37.56;51.49;;
70077;Laerm;57448;51.490;5.436;2024-01-10T10:36:09;40.27;37.97;47.84;;
70077;Laerm;57448;51.490;5.436;2024-01-10T10:38:35;42.19;38.53;55.57;;
70077;Laerm;57448;51.490;5.436;2024-01-10T10:41:02;43.36;38.01;61.62;;
70077;Laerm;57448;51.490;5.436;2024-01-10T10:43:29;59.88;39.07;74.80;;
70077;Laerm;57448;51.490;5.436;2024-01-10T10:45:58;41.53;37.97;56.03;;
70077;Laerm;57448;51.490;5.436;2024-01-10T10:48:23;40.43;38.18;45.02;;
70077;Laerm;57448;51.490;5.436;2024-01-10T10:50:54;44.78;37.39;66.09;;
70077;Laerm;57448;51.490;5.436;2024-01-10T10:53:24;40.50;37.89;50.64;;
70077;Laerm;57448;51.490;5.436;2024-01-10T10:55:50;41.09;37.71;52.30;;
70077;Laerm;57448;51.490;5.436;2024-01-10T10:58:17;41.54;37.96;48.69;;
70077;Laerm;57448;51.490;5.436;2024-01-10T11:00:42;44.67;39.05;54.54;;
70077;Laerm;57448;51.490;5.436;2024-01-10T11:03:11;40.52;37.29;46.69;;
70077;Laerm;57448;51.490;5.436;2024-01-10T11:05:36;39.76;37.07;52.15;;
70077;Laerm;57448;51.490;5.436;2024-01-10T11:08:05;40.03;37.07;57.86;;
70077;Laerm;57448;51.490;5.436;2024-01-10T11:10:33;40.46;37.60;50.22;;
70077;Laerm;57448;51.490;5.436;2024-01-10T11:21:11;57.85;39.14;76.39;;
70077;Laerm;57448;51.490;5.436;2024-01-10T11:26:06;55.94;38.95;80.83;;
70077;Laerm;57448;51.490;5.436;2024-01-10T11:28:31;49.41;38.25;72.87;;
70077;Laerm;57448;51.490;5.436;2024-01-10T11:30:58;41.77;38.04;52.47;;
70077;Laerm;57448;51.490;5.436;2024-01-10T11:33:24;40.20;37.69;49.84;;
70077;Laerm;57448;51.490;5.436;2024-01-10T11:38:49;52.77;36.80;65.60;;
70077;Laerm;57448;51.490;5.436;2024-01-10T11:46:35;43.40;37.09;63.99;;
70077;Laerm;57448;51.490;5.436;2024-01-10T11:49:00;44.89;36.61;72.04;;
70077;Laerm;57448;51.490;5.436;2024-01-10T11:51:25;43.80;36.65;62.73;;
70077;Laerm;57448;51.490;5.436;2024-01-10T11:53:51;40.32;35.94;47.64;;
70077;Laerm;57448;51.490;5.436;2024-01-10T11:56:18;40.03;37.90;52.44;;
70077;Laerm;57448;51.490;5.436;2024-01-10T11:59:02;41.52;37.84;54.18;;
70077;Laerm;57448;51.490;5.436;2024-01-10T12:01:30;40.43;37.22;47.51;;
70077;Laerm;57448;51.490;5.436;2024-01-10T12:03:56;41.63;37.90;49.23;;
70077;Laerm;57448;51.490;5.436;2024-01-10T12:06:22;39.98;37.55;48.33;;
70077;Laerm;57448;51.490;5.436;2024-01-10T12:08:50;41.06;37.28;58.27;;
70077;Laerm;57448;51.490;5.436;2024-01-10T12:11:15;41.45;38.20;52.97;;
70077;Laerm;57448;51.490;5.436;2024-01-10T12:13:41;41.45;38.56;62.29;;
70077;Laerm;57448;51.490;5.436;2024-01-10T12:16:07;41.86;39.23;48.19;;
70077;Laerm;57448;51.490;5.436;2024-01-10T12:18:32;41.92;38.80;47.89;;
70077;Laerm;57448;51.490;5.436;2024-01-10T12:20:57;56.03;38.86;72.47;;
70077;Laerm;57448;51.490;5.436;2024-01-10T12:23:23;44.73;37.09;56.98;;
70077;Laerm;57448;51.490;5.436;2024-01-10T12:25:48;40.89;37.64;50.60;;
70077;Laerm;57448;51.490;5.436;2024-01-10T12:28:16;49.62;38.88;68.97;;
70077;Laerm;57448;51.490;5.436;2024-01-10T12:30:42;61.13;40.59;75.28;;
70077;Laerm;57448;51.490;5.436;2024-01-10T12:33:10;46.67;39.03;64.22;;
70077;Laerm;57448;51.490;5.436;2024-01-10T12:35:36;40.32;37.73;49.39;;
70077;Laerm;57448;51.490;5.436;2024-01-10T12:38:02;40.49;37.59;56.58;;
70077;Laerm;57448;51.490;5.436;2024-01-10T12:40:28;39.49;37.28;47.66;;
70077;Laerm;57448;51.490;5.436;2024-01-10T12:43:03;39.21;37.16;43.24;;
70077;Laerm;57448;51.490;5.436;2024-01-10T12:45:29;40.68;37.73;47.33;;
70077;Laerm;57448;51.490;5.436;2024-01-10T12:47:54;57.96;38.00;74.49;;
70077;Laerm;57448;51.490;5.436;2024-01-10T12:50:20;46.40;38.52;55.64;;
70077;Laerm;57448;51.490;5.436;2024-01-10T12:52:45;40.50;36.81;52.94;;
70077;Laerm;57448;51.490;5.436;2024-01-10T12:55:11;40.62;38.34;45.62;;
70077;Laerm;57448;51.490;5.436;2024-01-10T12:57:37;41.34;38.11;54.81;;
70077;Laerm;57448;51.490;5.436;2024-01-10T13:00:03;40.62;38.02;45.21;;
70077;Laerm;57448;51.490;5.436;2024-01-10T13:02:31;40.60;38.40;46.80;;
70077;Laerm;57448;51.490;5.436;2024-01-10T13:05:00;53.25;37.15;69.98;;
70077;Laerm;57448;51.490;5.436;2024-01-10T13:07:25;51.68;37.10;71.02;;
70077;Laerm;57448;51.490;5.436;2024-01-10T13:09:52;40.40;36.31;49.87;;
70077;Laerm;57448;51.490;5.436;2024-01-10T13:12:18;40.07;36.75;45.30;;
70077;Laerm;57448;51.490;5.436;2024-01-10T13:14:45;42.34;38.08;56.37;;
70077;Laerm;57448;51.490;5.436;2024-01-10T13:17:10;42.00;38.53;57.72;;
70077;Laerm;57448;51.490;5.436;2024-01-10T13:19:36;43.07;38.01;56.97;;
70077;Laerm;57448;51.490;5.436;2024-01-10T13:22:02;41.66;38.99;49.71;;
70077;Laerm;57448;51.490;5.436;2024-01-10T13:24:28;41.69;38.48;47.60;;
70077;Laerm;57448;51.490;5.436;2024-01-10T13:26:54;42.73;39.57;49.15;;
70077;Laerm;57448;51.490;5.436;2024-01-10T13:29:20;42.68;39.07;51.01;;
70077;Laerm;57448;51.490;5.436;2024-01-10T13:31:45;45.59;39.49;70.19;;
70077;Laerm;57448;51.490;5.436;2024-01-10T13:34:12;42.12;38.46;54.28;;
70077;Laerm;57448;51.490;5.436;2024-01-10T13:36:38;45.02;37.87;69.86;;
70077;Laerm;57448;51.490;5.436;2024-01-10T13:39:03;41.03;38.41;57.45;;
70077;Laerm;57448;51.490;5.436;2024-01-10T13:41:28;41.21;38.80;48.76;;
70077;Laerm;57448;51.490;5.436;2024-01-10T13:43:54;40.83;38.38;60.15;;
70077;Laerm;57448;51.490;5.436;2024-01-10T13:46:19;59.33;39.75;74.41;;
70077;Laerm;57448;51.490;5.436;2024-01-10T13:48:45;41.97;39.23;48.06;;
70077;Laerm;57448;51.490;5.436;2024-01-10T13:51:10;43.09;38.84;60.13;;
70077;Laerm;57448;51.490;5.436;2024-01-10T13:53:36;42.44;39.16;55.20;;
70077;Laerm;57448;51.490;5.436;2024-01-10T13:56:02;55.81;39.71;67.90;;